Time;durP1;ratioP1;P1;durP2;ratioP2;P2;SDS_P1;SDS_P2;PMS_P1;PMS_P2;Temp;Humidity;BMP_temperature;BMP_pressure;BME280_temperature;BME280_humidity;BME280_pressure;Samples;Min_cycle;Max_cycle;Signal;HPM_P1;HPM_P2
2023/10/24 00:01:54;;;;;;;;;;;;;;;13.25;68.77;97258.84;4969214;28;20356;-76
2023/10/24 00:04:42;;;;;;;;;;;;;;;13.29;69.12;97276.13;4956984;28;19922;-76
2023/10/24 00:07:30;;;;;;;;;;;;;;;13.26;69.29;97276.00;4966072;28;20431;-76
2023/10/24 00:10:18;;;;;;;;;;;;;;;13.19;69.38;97276.56;4970234;28;19926;-75
2023/10/24 00:13:07;;;;;;;;;;;;;;;13.27;69.28;97275.69;4970407;28;20314;-76
2023/10/24 00:15:55;;;;;;;;;;;;;;;13.21;69.38;97278.94;4968201;28;19930;-76
2023/10/24 00:18:44;;;;;;;;;;;;;;;13.10;69.90;97256.78;4971013;28;19922;-77
2023/10/24 00:21:33;;;;;;;;;;;;;;;12.77;70.70;97241.38;4965717;28;19922;-75
2023/10/24 00:24:21;;;;;;;;;;;;;;;12.58;71.75;97236.50;4963626;28;19930;-76
2023/10/24 00:27:09;;;;;;;;;;;;;;;12.75;71.41;97240.16;4972068;28;19926;-76
2023/10/24 00:29:57;;;;;;;;;;;;;;;12.77;71.35;97232.41;4967478;28;19945;-76
2023/10/24 00:32:49;;;;;;;;;;;;;;;12.84;71.02;97228.00;4954900;28;20029;-75
2023/10/24 00:35:39;;;;;;;;;;;;;;;12.94;70.86;97210.34;4969528;28;21463;-75
2023/10/24 00:38:27;;;;;;;;;;;;;;;13.06;70.16;97198.66;4955345;28;19922;-76
2023/10/24 00:41:15;;;;;;;;;;;;;;;12.87;70.55;97199.25;4971381;28;19922;-76
2023/10/24 00:44:04;;;;;;;;;;;;;;;13.03;70.26;97193.88;4971749;28;20288;-76
2023/10/24 00:46:53;;;;;;;;;;;;;;;12.89;70.76;97180.63;4969184;28;19929;-76
2023/10/24 00:49:42;;;;;;;;;;;;;;;12.97;70.52;97192.53;4968869;28;19926;-76
2023/10/24 00:52:31;;;;;;;;;;;;;;;12.90;71.03;97184.13;4956615;28;19929;-76
2023/10/24 00:55:19;;;;;;;;;;;;;;;13.05;70.44;97189.66;4971262;28;19938;-75
2023/10/24 00:58:07;;;;;;;;;;;;;;;13.08;70.47;97182.72;4967543;28;20403;-76
2023/10/24 01:00:55;;;;;;;;;;;;;;;13.10;70.53;97189.44;4969280;28;19933;-76
2023/10/24 01:03:44;;;;;;;;;;;;;;;13.06;70.46;97163.19;4971680;28;20000;-76
2023/10/24 01:06:32;;;;;;;;;;;;;;;13.15;70.47;97143.94;4957857;28;19934;-76
2023/10/24 01:09:22;;;;;;;;;;;;;;;13.16;70.42;97153.75;4956611;28;19989;-76
2023/10/24 01:12:10;;;;;;;;;;;;;;;13.20;70.51;97158.13;4952932;28;20009;-76
2023/10/24 01:15:03;;;;;;;;;;;;;;;13.13;70.73;97160.66;4969801;28;19934;-76
2023/10/24 01:17:52;;;;;;;;;;;;;;;13.27;70.29;97158.38;4972958;28;20045;-75
2023/10/24 01:20:41;;;;;;;;;;;;;;;13.24;70.32;97163.72;4968547;28;19938;-76
2023/10/24 01:23:31;;;;;;;;;;;;;;;13.23;70.61;97160.22;4967148;28;20008;-76
2023/10/24 01:26:19;;;;;;;;;;;;;;;13.24;70.47;97163.72;4968674;28;20001;-76
2023/10/24 01:29:07;;;;;;;;;;;;;;;13.29;70.23;97150.63;4966774;28;19968;-76
2023/10/24 01:31:55;;;;;;;;;;;;;;;13.24;70.36;97147.34;4966007;28;19977;-76
2023/10/24 01:34:43;;;;;;;;;;;;;;;13.20;70.44;97140.97;4953261;28;20367;-76
2023/10/24 01:37:31;;;;;;;;;;;;;;;13.24;70.42;97134.50;4957087;28;19922;-76
2023/10/24 01:40:20;;;;;;;;;;;;;;;13.23;70.57;97129.41;4949779;28;19922;-76
2023/10/24 01:43:08;;;;;;;;;;;;;;;13.27;70.10;97135.78;4967454;28;19934;-76
2023/10/24 01:45:56;;;;;;;;;;;;;;;13.29;70.15;97138.94;4956625;28;19960;-76
2023/10/24 01:48:44;;;;;;;;;;;;;;;13.31;70.17;97131.19;4956369;28;20368;-76
2023/10/24 01:51:35;;;;;;;;;;;;;;;13.09;70.50;97118.84;4944417;28;19937;-76
2023/10/24 01:54:23;;;;;;;;;;;;;;;13.20;70.51;97113.69;4953652;28;19925;-76
2023/10/24 01:57:12;;;;;;;;;;;;;;;13.06;71.08;97116.84;4957544;28;19922;-76
2023/10/24 02:00:00;;;;;;;;;;;;;;;13.12;70.72;97112.72;4948645;28;19922;-76
2023/10/24 02:03:14;;;;;;;;;;;;;;;13.13;70.86;97108.06;4948061;28;19945;-76
2023/10/24 02:06:07;;;;;;;;;;;;;;;13.18;70.63;97105.09;4945836;28;19974;-76
2023/10/24 02:08:55;;;;;;;;;;;;;;;13.10;70.56;97115.81;4951534;28;19922;-76
2023/10/24 02:11:43;;;;;;;;;;;;;;;12.97;71.21;97103.34;4942952;28;19930;-76
2023/10/24 02:14:33;;;;;;;;;;;;;;;13.14;70.95;97104.97;4944923;28;19926;-75
2023/10/24 02:17:21;;;;;;;;;;;;;;;13.17;71.11;97119.88;4936456;28;19937;-76
2023/10/24 02:20:10;;;;;;;;;;;;;;;13.21;70.97;97118.00;4959578;28;19923;-75
2023/10/24 02:22:59;;;;;;;;;;;;;;;13.28;70.55;97116.31;4948878;28;19958;-76
2023/10/24 02:25:47;;;;;;;;;;;;;;;13.31;70.15;97112.09;4956642;28;20021;-75
2023/10/24 02:28:35;;;;;;;;;;;;;;;13.30;70.50;97105.84;4955709;28;20388;-75
2023/10/24 02:31:24;;;;;;;;;;;;;;;13.33;70.41;97115.28;4957443;28;20024;-76
2023/10/24 02:34:13;;;;;;;;;;;;;;;13.34;70.00;97114.91;4943304;28;19926;-75
2023/10/24 02:37:01;;;;;;;;;;;;;;;13.23;70.15;97113.03;4949432;28;19976;-76
2023/10/24 02:39:50;;;;;;;;;;;;;;;13.21;70.16;97099.78;4946454;28;20080;-76
2023/10/24 02:42:38;;;;;;;;;;;;;;;13.26;70.24;97107.69;4948408;28;19922;-75
2023/10/24 02:45:26;;;;;;;;;;;;;;;13.28;70.51;97120.97;4956616;28;19926;-76
2023/10/24 02:48:15;;;;;;;;;;;;;;;13.22;70.47;97127.84;4950103;28;20430;-76
2023/10/24 02:51:03;;;;;;;;;;;;;;;13.18;70.54;97124.19;4955566;28;20276;-75
2023/10/24 02:53:51;;;;;;;;;;;;;;;13.24;70.39;97131.78;4950722;28;19930;-76
2023/10/24 02:56:39;;;;;;;;;;;;;;;13.26;70.33;97150.53;4955344;28;19923;-75
2023/10/24 02:59:27;;;;;;;;;;;;;;;13.27;70.34;97147.47;4947298;28;20072;-76
2023/10/24 03:02:15;;;;;;;;;;;;;;;13.18;70.50;97149.50;4951768;28;20016;-76
2023/10/24 03:05:05;;;;;;;;;;;;;;;13.05;70.45;97147.97;4966213;28;19926;-76
2023/10/24 03:07:54;;;;;;;;;;;;;;;12.91;71.07;97145.63;4950186;28;19949;-75
2023/10/24 03:10:42;;;;;;;;;;;;;;;12.91;71.24;97151.06;4962309;28;20391;-76
2023/10/24 03:13:30;;;;;;;;;;;;;;;12.99;71.08;97152.06;4968816;28;20379;-75
2023/10/24 03:16:22;;;;;;;;;;;;;;;12.83;71.11;97150.06;4967565;28;19941;-76
2023/10/24 03:19:11;;;;;;;;;;;;;;;12.83;71.77;97143.81;4965780;28;19926;-75
2023/10/24 03:22:00;;;;;;;;;;;;;;;12.92;71.10;97152.66;4967244;28;19922;-76
2023/10/24 03:24:49;;;;;;;;;;;;;;;12.99;70.85;97150.13;4968556;28;19922;-76
2023/10/24 03:27:37;;;;;;;;;;;;;;;13.05;70.63;97154.22;4969580;28;19929;-76
2023/10/24 03:30:25;;;;;;;;;;;;;;;13.07;70.73;97162.06;4967838;28;19937;-76
2023/10/24 03:33:13;;;;;;;;;;;;;;;13.11;70.45;97162.97;4955168;28;20154;-76
2023/10/24 03:36:01;;;;;;;;;;;;;;;13.14;70.75;97158.72;4949685;28;20287;-75
2023/10/24 03:38:50;;;;;;;;;;;;;;;13.14;70.87;97169.63;4967936;28;19922;-75
2023/10/24 03:41:38;;;;;;;;;;;;;;;13.04;71.05;97168.19;4965972;28;19922;-76
2023/10/24 03:44:26;;;;;;;;;;;;;;;13.05;71.59;97156.94;4966880;28;20276;-76
2023/10/24 03:47:14;;;;;;;;;;;;;;;13.03;71.40;97153.75;4968241;28;20339;-75
2023/10/24 03:50:04;;;;;;;;;;;;;;;12.99;71.70;97150.13;4963815;28;19933;-75
2023/10/24 03:52:52;;;;;;;;;;;;;;;13.00;71.51;97159.13;4965795;28;20480;-76
2023/10/24 03:55:42;;;;;;;;;;;;;;;12.94;72.01;97144.13;4967860;28;19923;-74
2023/10/24 03:58:32;;;;;;;;;;;;;;;12.97;72.15;97149.69;4966349;28;19969;-76
2023/10/24 04:01:20;;;;;;;;;;;;;;;12.70;73.30;97140.31;4974257;28;19953;-75
2023/10/24 04:04:08;;;;;;;;;;;;;;;12.85;73.15;97130.66;4971680;28;19929;-75
2023/10/24 04:06:56;;;;;;;;;;;;;;;12.89;73.16;97126.09;4953723;28;20001;-76
2023/10/24 04:09:44;;;;;;;;;;;;;;;12.97;73.00;97138.78;4969444;28;19945;-76
2023/10/24 04:12:33;;;;;;;;;;;;;;;13.05;72.89;97123.44;4971317;28;20065;-76
2023/10/24 04:15:23;;;;;;;;;;;;;;;13.17;72.57;97131.56;4967018;28;19929;-76
2023/10/24 04:18:11;;;;;;;;;;;;;;;13.28;72.05;97127.22;4955074;28;19930;-76
2023/10/24 04:20:59;;;;;;;;;;;;;;;13.40;71.48;97120.91;4953835;28;19929;-76
2023/10/24 04:23:47;;;;;;;;;;;;;;;13.45;70.94;97114.41;4960605;28;19969;-76
2023/10/24 04:26:35;;;;;;;;;;;;;;;13.45;71.16;97101.56;4962692;28;19926;-76
2023/10/24 04:29:24;;;;;;;;;;;;;;;13.52;71.07;97090.03;4974234;28;20253;-76
2023/10/24 04:32:13;;;;;;;;;;;;;;;13.59;70.70;97096.50;4967376;28;20396;-76
2023/10/24 04:35:02;;;;;;;;;;;;;;;13.66;70.32;97081.44;4962968;28;20464;-76
2023/10/24 04:37:50;;;;;;;;;;;;;;;13.66;70.32;97078.72;4971329;28;19971;-75
2023/10/24 04:40:39;;;;;;;;;;;;;;;13.51;70.02;97086.53;4963815;28;19970;-76
2023/10/24 04:43:27;;;;;;;;;;;;;;;13.68;69.82;97090.84;4971455;28;19922;-76
2023/10/24 04:46:16;;;;;;;;;;;;;;;13.49;70.01;97083.34;4969888;28;19922;-76
2023/10/24 04:49:04;;;;;;;;;;;;;;;13.45;70.46;97081.69;4967070;28;19922;-75
2023/10/24 04:51:52;;;;;;;;;;;;;;;13.62;70.10;97079.41;4970508;28;20060;-75
2023/10/24 04:54:40;;;;;;;;;;;;;;;13.69;69.65;97075.25;4970651;28;19981;-76
2023/10/24 04:57:29;;;;;;;;;;;;;;;13.75;69.35;97085.59;4967748;28;19933;-75
2023/10/24 05:00:17;;;;;;;;;;;;;;;13.47;70.30;97082.09;4961858;28;19929;-76
2023/10/24 05:03:07;;;;;;;;;;;;;;;13.61;70.31;97085.22;4964966;28;19926;-76
2023/10/24 05:05:55;;;;;;;;;;;;;;;13.67;69.51;97077.56;4967247;28;19926;-76
2023/10/24 05:08:44;;;;;;;;;;;;;;;13.71;69.62;97067.53;4963384;28;20033;-75
2023/10/24 05:11:32;;;;;;;;;;;;;;;13.76;69.32;97067.25;4965974;28;19922;-75
2023/10/24 05:14:21;;;;;;;;;;;;;;;13.70;69.35;97055.81;4974219;28;19929;-76
2023/10/24 05:17:09;;;;;;;;;;;;;;;13.78;69.09;97051.31;4954227;28;19957;-76
2023/10/24 05:19:59;;;;;;;;;;;;;;;13.71;69.35;97051.16;4967721;28;19926;-76
2023/10/24 05:22:47;;;;;;;;;;;;;;;13.78;69.24;97051.31;4959783;28;19926;-76
2023/10/24 05:25:36;;;;;;;;;;;;;;;13.78;69.14;97043.13;4953780;28;19934;-76
2023/10/24 05:28:24;;;;;;;;;;;;;;;13.76;69.14;97042.69;4967994;28;19929;-76
2023/10/24 05:31:12;;;;;;;;;;;;;;;13.76;69.33;97050.88;4966299;28;19965;-76
2023/10/24 05:34:01;;;;;;;;;;;;;;;13.81;68.80;97061.53;4948002;28;19929;-76
2023/10/24 05:36:51;;;;;;;;;;;;;;;13.83;68.88;97064.69;4962117;28;19927;-76
2023/10/24 05:39:39;;;;;;;;;;;;;;;13.75;68.99;97066.47;4963198;28;20056;-76
2023/10/24 05:42:27;;;;;;;;;;;;;;;13.83;69.16;97070.16;4969976;28;19922;-76
2023/10/24 05:45:15;;;;;;;;;;;;;;;13.74;69.40;97062.16;4952165;28;19929;-76
2023/10/24 05:48:03;;;;;;;;;;;;;;;13.86;69.17;97047.63;4966984;28;19930;-77
2023/10/24 05:50:51;;;;;;;;;;;;;;;13.93;68.95;97033.34;4965352;28;20284;-76
2023/10/24 05:53:44;;;;;;;;;;;;;;;13.84;69.12;97014.41;4953854;28;19944;-76
2023/10/24 05:56:32;;;;;;;;;;;;;;;13.91;68.90;97016.53;4964355;28;20008;-76
2023/10/24 05:59:20;;;;;;;;;;;;;;;13.93;68.86;97014.22;4972295;28;19928;-76
2023/10/24 06:02:08;;;;;;;;;;;;;;;13.91;68.77;97008.34;4971210;28;20013;-76
2023/10/24 06:04:57;;;;;;;;;;;;;;;14.02;68.61;97006.66;4958249;28;20273;-76
2023/10/24 06:07:45;;;;;;;;;;;;;;;13.98;68.53;96998.38;4967493;28;19922;-76
2023/10/24 06:10:34;;;;;;;;;;;;;;;13.93;68.62;96998.63;4973173;28;19980;-76
2023/10/24 06:13:22;;;;;;;;;;;;;;;14.01;68.60;96994.94;4969043;28;20357;-76
2023/10/24 06:16:16;;;;;;;;;;;;;;;13.97;68.53;96980.41;4967776;28;19929;-76
2023/10/24 06:19:05;;;;;;;;;;;;;;;13.99;68.50;96982.78;4962462;28;20066;-76
2023/10/24 06:21:54;;;;;;;;;;;;;;;14.00;68.53;96982.41;4963854;28;19973;-77
2023/10/24 06:24:42;;;;;;;;;;;;;;;13.99;68.74;96989.03;4945601;28;19922;-77
2023/10/24 06:27:31;;;;;;;;;;;;;;;14.02;68.71;96991.06;4962639;28;19926;-76
2023/10/24 06:30:19;;;;;;;;;;;;;;;14.02;68.38;96984.81;4972046;28;19922;-75
2023/10/24 06:33:07;;;;;;;;;;;;;;;13.54;70.55;96971.22;4972926;28;19933;-76
2023/10/24 06:35:55;;;;;;;;;;;;;;;13.79;69.45;96971.00;4955112;28;19926;-77
2023/10/24 06:38:43;;;;;;;;;;;;;;;13.84;69.24;96963.31;4974049;28;19928;-77
2023/10/24 06:41:33;;;;;;;;;;;;;;;13.83;69.38;96966.41;4953430;29;19928;-77
2023/10/24 06:44:22;;;;;;;;;;;;;;;13.87;69.26;96962.63;4945316;29;20373;-77
2023/10/24 06:47:11;;;;;;;;;;;;;;;13.86;69.35;96980.16;4971837;28;19938;-77
2023/10/24 06:49:59;;;;;;;;;;;;;;;13.83;69.29;96988.25;4959917;28;19940;-77
2023/10/24 06:52:49;;;;;;;;;;;;;;;13.61;70.66;96992.41;4966169;28;19922;-77
2023/10/24 06:55:37;;;;;;;;;;;;;;;13.80;69.35;96989.78;4973281;28;19996;-77
2023/10/24 06:58:25;;;;;;;;;;;;;;;13.86;69.47;96991.06;4959808;28;20016;-77
2023/10/24 07:01:15;;;;;;;;;;;;;;;13.94;69.23;96988.50;4966138;28;19930;-77
2023/10/24 07:04:03;;;;;;;;;;;;;;;13.98;68.88;96984.72;4966283;28;19922;-77
2023/10/24 07:06:52;;;;;;;;;;;;;;;13.84;69.33;96976.97;4969460;28;20017;-76
2023/10/24 07:09:40;;;;;;;;;;;;;;;13.87;69.38;96970.03;4967818;28;20368;-77
2023/10/24 07:12:28;;;;;;;;;;;;;;;13.90;69.29;96972.03;4967153;28;20368;-77
2023/10/24 07:15:16;;;;;;;;;;;;;;;13.48;70.69;96969.13;4963724;28;19929;-77
2023/10/24 07:18:05;;;;;;;;;;;;;;;13.80;69.74;96964.41;4971513;28;19933;-77
2023/10/24 07:20:57;;;;;;;;;;;;;;;13.83;69.30;96963.69;4966829;28;19938;-76
2023/10/24 07:23:45;;;;;;;;;;;;;;;13.86;69.42;96952.84;4972377;28;20000;-77
2023/10/24 07:26:34;;;;;;;;;;;;;;;13.80;69.46;96950.75;4961250;28;19922;-76
2023/10/24 07:29:23;;;;;;;;;;;;;;;13.86;69.49;96944.66;4975034;28;19922;-77
2023/10/24 07:32:11;;;;;;;;;;;;;;;13.75;69.62;96946.38;4960793;28;20268;-77
2023/10/24 07:35:00;;;;;;;;;;;;;;;13.89;69.19;96943.16;4972627;28;19934;-77
2023/10/24 07:38:13;;;;;;;;;;;;;;;13.81;69.67;96941.41;4971863;28;19922;-76
2023/10/24 07:41:01;;;;;;;;;;;;;;;13.81;69.44;96944.16;4954511;28;19969;-76
2023/10/24 07:43:49;;;;;;;;;;;;;;;13.77;69.28;96952.25;4958262;28;20283;-77
2023/10/24 07:46:37;;;;;;;;;;;;;;;13.78;69.53;96953.03;4973735;28;20008;-76
2023/10/24 07:49:26;;;;;;;;;;;;;;;13.78;69.43;96948.38;4969976;28;19938;-76
2023/10/24 07:52:17;;;;;;;;;;;;;;;13.87;69.34;96956.38;4971933;28;20331;-76
2023/10/24 07:55:06;;;;;;;;;;;;;;;13.89;69.91;96954.06;4965415;28;20516;-76
2023/10/24 07:57:57;;;;;;;;;;;;;;;13.98;68.89;96959.34;4964215;28;19926;-77
2023/10/24 08:00:46;;;;;;;;;;;;;;;13.99;68.97;96975.38;4972966;28;19929;-76
2023/10/24 08:03:34;;;;;;;;;;;;;;;13.96;68.80;96976.09;4973927;28;20435;-76
2023/10/24 08:06:22;;;;;;;;;;;;;;;13.99;68.89;96975.38;4966702;28;19933;-77
2023/10/24 08:09:17;;;;;;;;;;;;;;;13.99;69.07;96986.28;4971254;28;20280;-76
2023/10/24 08:12:06;;;;;;;;;;;;;;;13.78;69.33;96974.88;4970199;28;20488;-76
2023/10/24 08:14:54;;;;;;;;;;;;;;;13.86;69.14;96963.00;4975315;28;20057;-77
2023/10/24 08:17:42;;;;;;;;;;;;;;;13.99;68.96;96961.72;4961118;28;19922;-76
2023/10/24 08:20:30;;;;;;;;;;;;;;;14.03;68.77;96954.41;4952930;28;19922;-76
2023/10/24 08:23:18;;;;;;;;;;;;;;;14.01;68.86;96951.25;4959991;28;19926;-77
2023/10/24 08:26:07;;;;;;;;;;;;;;;14.08;69.30;96954.13;4958805;28;20280;-76
2023/10/24 08:28:55;;;;;;;;;;;;;;;14.05;69.14;96946.63;4965754;28;19922;-76
2023/10/24 08:31:44;;;;;;;;;;;;;;;14.08;68.80;96945.13;4971822;28;19922;-76
2023/10/24 08:34:47;;;;;;;;;;;;;;;14.06;69.04;96959.16;4972383;28;20017;-76
2023/10/24 08:37:35;;;;;;;;;;;;;;;13.99;68.92;96952.72;4973148;28;20464;-76
2023/10/24 08:40:23;;;;;;;;;;;;;;;14.09;69.11;96943.97;4974639;28;19922;-76
2023/10/24 08:43:13;;;;;;;;;;;;;;;14.16;68.84;96936.72;4954821;28;19923;-76
2023/10/24 08:46:06;;;;;;;;;;;;;;;14.19;68.93;96937.97;4970786;28;20292;-77
2023/10/24 08:48:54;;;;;;;;;;;;;;;14.11;68.41;96928.84;4975876;28;19933;-76
2023/10/24 08:51:42;;;;;;;;;;;;;;;14.09;68.26;96931.13;4960426;28;19928;-77
2023/10/24 08:54:30;;;;;;;;;;;;;;;14.10;68.68;96926.44;4963815;28;19926;-76
2023/10/24 08:57:18;;;;;;;;;;;;;;;14.05;68.74;96941.16;4973425;28;20009;-77
2023/10/24 09:00:10;;;;;;;;;;;;;;;14.02;68.42;96941.09;4951055;28;20061;-77
2023/10/24 09:03:00;;;;;;;;;;;;;;;14.03;69.18;96937.22;4939060;28;20053;-76
2023/10/24 09:05:48;;;;;;;;;;;;;;;14.08;68.59;96935.00;4951895;29;19970;-77
2023/10/24 09:08:37;;;;;;;;;;;;;;;14.11;68.52;96944.41;4930754;29;20107;-76
2023/10/24 09:11:25;;;;;;;;;;;;;;;14.18;68.66;96960.19;4952969;29;19933;-77
2023/10/24 09:14:14;;;;;;;;;;;;;;;14.19;68.75;96962.53;4954917;29;19922;-77
2023/10/24 09:17:04;;;;;;;;;;;;;;;14.14;69.22;96977.25;4955982;29;19926;-77
2023/10/24 09:19:52;;;;;;;;;;;;;;;14.18;69.24;96976.56;4947303;29;20333;-77
2023/10/24 09:22:41;;;;;;;;;;;;;;;14.17;68.67;96981.25;4956014;29;19929;-76
2023/10/24 09:25:29;;;;;;;;;;;;;;;14.19;68.56;96983.59;4951913;28;20081;-76
2023/10/24 09:28:18;;;;;;;;;;;;;;;14.25;68.97;96998.56;4956762;28;20013;-76
2023/10/24 09:31:10;;;;;;;;;;;;;;;13.91;69.89;96991.97;4954440;29;20376;-76
2023/10/24 09:34:00;;;;;;;;;;;;;;;14.11;69.28;96986.19;4943200;28;19929;-76
2023/10/24 09:36:49;;;;;;;;;;;;;;;14.00;69.91;96987.88;4954695;29;19922;-77
2023/10/24 09:39:50;;;;;;;;;;;;;;;14.14;70.04;96992.88;4955190;29;19923;-76
2023/10/24 09:42:39;;;;;;;;;;;;;;;14.00;69.47;96989.81;4951039;29;20002;-77
2023/10/24 09:45:28;;;;;;;;;;;;;;;14.16;69.22;96979.63;4953691;29;20269;-77
2023/10/24 09:48:16;;;;;;;;;;;;;;;14.27;69.01;96980.66;4940924;28;19922;-77
2023/10/24 09:51:06;;;;;;;;;;;;;;;14.33;68.74;96975.72;4950547;28;19922;-78
2023/10/24 09:53:54;;;;;;;;;;;;;;;14.33;68.54;96967.53;4952830;28;20283;-77
2023/10/24 09:56:42;;;;;;;;;;;;;;;14.31;68.60;96972.53;4954315;28;20273;-76
2023/10/24 09:59:30;;;;;;;;;;;;;;;14.25;68.49;96966.56;4950989;28;19929;-76
2023/10/24 10:02:20;;;;;;;;;;;;;;;14.19;68.56;96967.22;4958071;28;20008;-77
2023/10/24 10:05:08;;;;;;;;;;;;;;;14.15;69.70;96959.72;4963911;28;20391;-77
2023/10/24 10:08:00;;;;;;;;;;;;;;;14.15;70.06;96957.00;4972228;28;19945;-77
2023/10/24 10:10:48;;;;;;;;;;;;;;;14.24;69.95;96947.81;4952293;28;20384;-77
2023/10/24 10:13:36;;;;;;;;;;;;;;;14.27;69.99;96949.81;4967436;28;19922;-76
2023/10/24 10:16:29;;;;;;;;;;;;;;;14.31;70.40;96948.75;4968672;28;19922;-77
2023/10/24 10:19:22;;;;;;;;;;;;;;;14.31;70.17;96947.94;4959348;28;19978;-76
2023/10/24 10:22:19;;;;;;;;;;;;;;;14.38;69.96;96954.38;4969893;28;20320;-78
2023/10/24 10:25:28;;;;;;;;;;;;;;;14.37;70.50;96951.97;4946464;28;19929;-78
2023/10/24 10:28:18;;;;;;;;;;;;;;;14.39;70.45;96955.16;4971505;28;20004;-77
2023/10/24 10:31:10;;;;;;;;;;;;;;;14.37;70.48;96952.75;4972578;28;19929;-78
2023/10/24 10:34:19;;;;;;;;;;;;;;;14.26;71.35;96942.78;4965859;28;19942;-77
2023/10/24 10:37:07;;;;;;;;;;;;;;;14.33;71.15;96940.19;4971680;28;20427;-77
2023/10/24 10:40:04;;;;;;;;;;;;;;;14.32;70.98;96933.91;4952922;28;19945;-76
2023/10/24 10:42:52;;;;;;;;;;;;;;;14.36;71.26;96936.72;4957865;28;19928;-77
2023/10/24 10:45:43;;;;;;;;;;;;;;;14.37;71.36;96936.38;4968228;28;19922;-76
2023/10/24 10:48:31;;;;;;;;;;;;;;;14.35;71.99;96935.16;4973234;28;19974;-77
2023/10/24 10:51:22;;;;;;;;;;;;;;;14.34;72.58;96941.78;4962672;28;19929;-78
2023/10/24 10:54:17;;;;;;;;;;;;;;;14.12;73.45;96929.63;4973187;28;20283;-78
2023/10/24 10:57:06;;;;;;;;;;;;;;;13.99;73.47;96926.22;4960902;28;20288;-78
2023/10/24 10:59:55;;;;;;;;;;;;;;;14.03;73.75;96934.50;4973083;28;19933;-78
2023/10/24 11:02:48;;;;;;;;;;;;;;;14.02;73.84;96927.44;4958058;28;20261;-78
2023/10/24 11:05:47;;;;;;;;;;;;;;;14.08;74.16;96929.53;4957999;28;19922;-77
2023/10/24 11:08:38;;;;;;;;;;;;;;;14.14;74.29;96927.31;4974606;28;20024;-78
2023/10/24 11:11:28;;;;;;;;;;;;;;;14.20;74.34;96920.41;4973006;28;19957;-77
2023/10/24 11:14:17;;;;;;;;;;;;;;;14.16;74.96;96909.41;4975674;28;20010;-77
2023/10/24 11:17:05;;;;;;;;;;;;;;;14.15;75.15;96910.56;4977588;28;19929;-78
2023/10/24 11:19:55;;;;;;;;;;;;;;;14.23;74.84;96908.00;4973418;28;19977;-78
2023/10/24 11:22:56;;;;;;;;;;;;;;;14.16;75.80;96898.47;4963724;28;19943;-77
2023/10/24 11:25:44;;;;;;;;;;;;;;;14.18;75.73;96903.59;4970723;28;19957;-77
2023/10/24 11:28:32;;;;;;;;;;;;;;;14.16;75.87;96892.22;4977518;28;19926;-77
2023/10/24 11:31:21;;;;;;;;;;;;;;;14.15;75.64;96885.97;4976671;28;19929;-77
2023/10/24 11:34:11;;;;;;;;;;;;;;;14.17;75.43;96888.38;4957988;28;19922;-77
2023/10/24 11:37:00;;;;;;;;;;;;;;;14.15;75.89;96885.97;4970424;28;19944;-77
2023/10/24 11:39:49;;;;;;;;;;;;;;;14.18;75.91;96883.69;4960695;28;20009;-77
2023/10/24 11:42:37;;;;;;;;;;;;;;;14.09;76.19;96884.69;4968421;28;19922;-77
2023/10/24 11:45:25;;;;;;;;;;;;;;;14.14;76.71;96891.81;4959189;28;20016;-77
2023/10/24 11:48:17;;;;;;;;;;;;;;;14.16;76.53;96892.22;4974332;28;19980;-76
2023/10/24 11:51:05;;;;;;;;;;;;;;;14.12;76.55;96892.16;4962274;28;19926;-75
2023/10/24 11:54:02;;;;;;;;;;;;;;;14.10;75.83;96880.78;4966694;28;19930;-76
2023/10/24 11:56:50;;;;;;;;;;;;;;;14.09;76.15;96892.09;4971351;28;19926;-77
2023/10/24 11:59:41;;;;;;;;;;;;;;;14.07;76.44;96888.94;4967958;28;20340;-76
2023/10/24 12:02:38;;;;;;;;;;;;;;;14.08;77.02;96891.31;4973862;28;21481;-76
2023/10/24 12:05:27;;;;;;;;;;;;;;;14.03;77.25;96883.38;4968952;28;19934;-76
2023/10/24 12:08:15;;;;;;;;;;;;;;;13.98;76.90;96870.03;4974484;28;19926;-76
2023/10/24 12:11:04;;;;;;;;;;;;;;;13.85;77.44;96872.09;4975156;28;19926;-76
2023/10/24 12:13:52;;;;;;;;;;;;;;;13.81;77.69;96865.78;4975128;28;19922;-76
2023/10/24 12:16:42;;;;;;;;;;;;;;;13.76;78.47;96866.06;4969260;28;19922;-76
2023/10/24 12:19:46;;;;;;;;;;;;;;;13.71;78.88;96863.59;4966773;28;19922;-76
2023/10/24 12:22:34;;;;;;;;;;;;;;;13.68;79.43;96860.78;4973816;28;19922;-76
2023/10/24 12:25:22;;;;;;;;;;;;;;;13.63;80.09;96865.41;4971640;28;19922;-76
2023/10/24 12:28:11;;;;;;;;;;;;;;;13.62;80.22;96863.78;4967019;28;19954;-76
2023/10/24 12:30:59;;;;;;;;;;;;;;;13.66;80.14;96874.00;4960877;28;20089;-76
2023/10/24 12:33:48;;;;;;;;;;;;;;;13.67;80.27;96870.13;4964034;28;20060;-76
2023/10/24 12:36:38;;;;;;;;;;;;;;;13.67;80.84;96862.72;4958500;28;19981;-75
2023/10/24 12:39:26;;;;;;;;;;;;;;;13.70;80.62;96853.03;4960879;28;20367;-76
2023/10/24 12:42:14;;;;;;;;;;;;;;;13.67;81.26;96846.34;4975288;28;19929;-75
2023/10/24 12:45:03;;;;;;;;;;;;;;;13.78;80.85;96849.31;4959641;28;19988;-75
2023/10/24 12:47:53;;;;;;;;;;;;;;;13.76;80.55;96857.84;4955568;28;19926;-75
2023/10/24 12:50:41;;;;;;;;;;;;;;;13.79;80.27;96856.34;4973598;28;19922;-76
2023/10/24 12:53:29;;;;;;;;;;;;;;;13.41;82.21;96849.66;4965460;28;19949;-75
2023/10/24 12:56:17;;;;;;;;;;;;;;;13.61;81.69;96856.75;4971167;28;19922;-76
2023/10/24 12:59:05;;;;;;;;;;;;;;;13.64;81.12;96844.34;4957366;28;20412;-76
2023/10/24 13:01:55;;;;;;;;;;;;;;;13.68;81.05;96844.41;4938379;29;19929;-77
2023/10/24 13:04:44;;;;;;;;;;;;;;;13.67;81.16;96834.66;4945150;29;19923;-76
2023/10/24 13:07:32;;;;;;;;;;;;;;;13.68;81.24;96828.03;4950498;29;20050;-76
2023/10/24 13:10:21;;;;;;;;;;;;;;;13.67;80.93;96821.00;4935346;29;19922;-76
2023/10/24 13:13:09;;;;;;;;;;;;;;;13.52;81.41;96815.22;4953098;29;20017;-75
2023/10/24 13:15:57;;;;;;;;;;;;;;;13.58;81.46;96818.47;4953288;29;19974;-76
2023/10/24 13:18:47;;;;;;;;;;;;;;;13.42;82.38;96812.25;4952696;29;19927;-76
2023/10/24 13:21:36;;;;;;;;;;;;;;;13.47;82.46;96807.31;4940833;29;19934;-76
2023/10/24 13:24:24;;;;;;;;;;;;;;;13.60;82.08;96806.06;4954605;29;20275;-76
2023/10/24 13:27:14;;;;;;;;;;;;;;;13.66;81.84;96805.78;4944518;28;19922;-76
2023/10/24 13:30:02;;;;;;;;;;;;;;;13.40;82.26;96803.66;4954580;29;20411;-77
2023/10/24 13:32:55;;;;;;;;;;;;;;;13.55;81.89;96802.81;4952561;28;19929;-76
2023/10/24 13:35:45;;;;;;;;;;;;;;;13.57;81.63;96801.31;4935071;29;19929;-76
2023/10/24 13:38:37;;;;;;;;;;;;;;;13.58;81.54;96807.53;4946118;29;19942;-76
2023/10/24 13:41:25;;;;;;;;;;;;;;;13.60;81.35;96806.06;4946306;29;19946;-77
2023/10/24 13:44:16;;;;;;;;;;;;;;;13.59;81.39;96809.16;4949961;29;19930;-77
2023/10/24 13:47:05;;;;;;;;;;;;;;;13.65;81.21;96809.66;4953098;29;19934;-77
2023/10/24 13:49:53;;;;;;;;;;;;;;;13.66;81.47;96809.28;4953203;28;20003;-77
2023/10/24 13:52:43;;;;;;;;;;;;;;;13.60;81.42;96799.81;4939769;29;19930;-77
2023/10/24 13:55:33;;;;;;;;;;;;;;;13.62;81.50;96797.50;4952555;28;19922;-76
2023/10/24 13:58:22;;;;;;;;;;;;;;;13.58;81.81;96792.00;4948425;29;20377;-76
2023/10/24 14:01:09;;;;;;;;;;;;;;;13.57;81.54;96795.06;4957465;28;19922;-77
2023/10/24 14:04:01;;;;;;;;;;;;;;;13.53;81.05;96795.00;4955568;28;19933;-77
2023/10/24 14:06:49;;;;;;;;;;;;;;;13.52;81.59;96790.66;4959841;28;20012;-76
2023/10/24 14:09:40;;;;;;;;;;;;;;;13.53;81.57;96789.53;4968671;28;19925;-76
2023/10/24 14:12:29;;;;;;;;;;;;;;;13.57;81.08;96801.31;4966683;28;19922;-76
2023/10/24 14:15:17;;;;;;;;;;;;;;;13.60;81.29;96786.97;4968101;28;20281;-76
2023/10/24 14:18:05;;;;;;;;;;;;;;;13.61;81.23;96777.63;4956813;28;19922;-76
2023/10/24 14:20:55;;;;;;;;;;;;;;;13.67;81.39;96775.38;4944653;28;20016;-76
2023/10/24 14:23:43;;;;;;;;;;;;;;;13.68;81.41;96776.19;4959449;28;19922;-76
2023/10/24 14:26:32;;;;;;;;;;;;;;;13.71;81.45;96768.06;4970545;28;19965;-76
2023/10/24 14:29:20;;;;;;;;;;;;;;;13.78;81.59;96756.50;4978830;28;20021;-76
2023/10/24 14:32:09;;;;;;;;;;;;;;;13.84;81.41;96755.06;4969510;28;19926;-76
2023/10/24 14:34:57;;;;;;;;;;;;;;;13.87;80.53;96755.13;4968236;28;19926;-76
2023/10/24 14:37:45;;;;;;;;;;;;;;;13.91;80.54;96747.03;4971876;28;19929;-76
2023/10/24 14:40:33;;;;;;;;;;;;;;;13.97;80.12;96752.97;4970177;28;20388;-76
2023/10/24 14:43:22;;;;;;;;;;;;;;;13.99;79.85;96750.66;4973284;28;19973;-76